^^
Station Historical Data
Daily Summary for February 13, 2018 Units:  English    Metric   Both
« Previous Day
Next Day »
Daily Weekly Monthly Yearly Custom
  High: Low: Average:
Temperature: TemperatureF °F 11.8 °F 32.4 °F
Dew Point: DewpointF °F 7.6 °F 19.8 °F
Humidity: Humidity% 32% 63%
Wind Speed: WindSpeedMPHmph 0.0mph 2.1mph
Wind Gust: WindSpeedGustMPHmph - -
Wind- - WSW
Pressure: PressureIn in 30.00 in -
Precipitation: 0.01 in    
Historical Graphs
 
 
Tabular Data for February 13, 2018
Time Temperature Dew Point Pressure Wind Wind Speed Wind Gust Humidity Rainfall Rate (Hourly) solar Conditions
TemperatureF °F DewpointF °F PressureIn in Calm     Humidity% HourlyPrecipIn in SoftwareType W/m2 Conditions
00:02 18.1 °F 13.8 °F 30.28 in Calm     83% 0.00 in WeatherDisplay:10.37 W/m2 CLR
00:07 18.1 °F 13.5 °F 30.29 in Calm     82% 0.00 in WeatherDisplay:10.37 W/m2 CLR
00:12 18.1 °F 13.5 °F 30.29 in Calm     82% 0.00 in WeatherDisplay:10.37 W/m2 CLR
00:17 18.1 °F 13.8 °F 30.28 in Calm     83% 0.00 in WeatherDisplay:10.37 W/m2 CLR
00:22 18.2 °F 13.9 °F 30.29 in WNW 1.2 mph   83% 0.00 in WeatherDisplay:10.37 W/m2 CLR
00:27 18.2 °F 13.9 °F 30.28 in Calm     83% 0.00 in WeatherDisplay:10.37 W/m2 CLR
00:32 18.2 °F 13.9 °F 30.28 in Calm     83% 0.00 in WeatherDisplay:10.37 W/m2 CLR
00:37 18.3 °F 14.0 °F 30.26 in WNW 1.2 mph 1.2 mph 83% 0.00 in WeatherDisplay:10.37 W/m2 CLR
00:42 18.4 °F 14.1 °F 30.27 in Calm     83% 0.00 in WeatherDisplay:10.37 W/m2 CLR
00:47 18.4 °F 14.1 °F 30.26 in WNW 2.3 mph 2.3 mph 83% 0.00 in WeatherDisplay:10.37 W/m2 CLR
00:52 18.3 °F 13.7 °F 30.26 in Calm     82% 0.00 in WeatherDisplay:10.37 W/m2 CLR
00:57 18.2 °F 13.6 °F 30.25 in Calm     82% 0.00 in WeatherDisplay:10.37 W/m2 CLR
01:02 18.1 °F 13.5 °F 30.25 in Calm     82% 0.00 in WeatherDisplay:10.37 W/m2 CLR
01:07 17.9 °F 13.1 °F 30.26 in WNW 1.2 mph 1.2 mph 81% 0.00 in WeatherDisplay:10.37 W/m2 CLR
01:12 17.6 °F 12.8 °F 30.25 in Calm     81% 0.00 in WeatherDisplay:10.37 W/m2 CLR
01:17 17.3 °F 12.5 °F 30.27 in Calm     81% 0.00 in WeatherDisplay:10.37 W/m2 CLR
01:22 17.0 °F 12.2 °F 30.28 in Calm     81% 0.00 in WeatherDisplay:10.37 W/m2 CLR
01:27 16.8 °F 12.0 °F 30.27 in WNW 3.5 mph 3.5 mph 81% 0.00 in WeatherDisplay:10.37 W/m2 CLR
01:32 16.3 °F 11.2 °F 30.26 in WNW 1.2 mph 1.2 mph 80% 0.00 in WeatherDisplay:10.37 W/m2 CLR
01:37 15.7 °F 10.9 °F 30.26 in WNW 1.2 mph 1.2 mph 81% 0.00 in WeatherDisplay:10.37 W/m2 CLR
01:42 15.3 °F 10.5 °F 30.28 in Calm     81% 0.00 in WeatherDisplay:10.37 W/m2 CLR
01:47 15.1 °F 10.6 °F 30.28 in WNW 1.2 mph 1.2 mph 82% 0.00 in WeatherDisplay:10.37 W/m2 CLR
01:52 14.9 °F 10.1 °F 30.28 in WNW 2.3 mph 2.3 mph 81% 0.00 in WeatherDisplay:10.37 W/m2 CLR
01:57 14.6 °F 9.8 °F 30.27 in WNW 1.0 mph 1.0 mph 81% 0.00 in WeatherDisplay:10.37 W/m2 CLR
02:02 14.3 °F 9.5 °F 30.27 in WNW 1.0 mph 1.0 mph 81% 0.00 in WeatherDisplay:10.37 W/m2 CLR
02:07 14.2 °F 9.7 °F 30.27 in Calm     82% 0.00 in WeatherDisplay:10.37 W/m2 CLR
02:12 14.2 °F 10.0 °F 30.27 in WNW 2.3 mph   83% 0.00 in WeatherDisplay:10.37 W/m2 CLR
02:17 14.3 °F 10.1 °F 30.27 in WNW 2.3 mph 2.3 mph 83% 0.00 in WeatherDisplay:10.37 W/m2 CLR
02:22 14.2 °F 9.7 °F 30.27 in Calm   0.2 mph 82% 0.00 in WeatherDisplay:10.37 W/m2 CLR
02:27 14.0 °F 9.5 °F 30.27 in WNW 1.2 mph 1.2 mph 82% 0.00 in WeatherDisplay:10.37 W/m2 CLR
02:32 13.9 °F 9.4 °F 30.27 in WNW 1.2 mph   82% 0.00 in WeatherDisplay:10.37 W/m2 CLR
02:37 14.0 °F 10.1 °F 30.27 in WNW 1.2 mph   84% 0.00 in WeatherDisplay:10.37 W/m2 CLR
02:42 14.3 °F 10.4 °F 30.27 in WNW 1.2 mph   84% 0.00 in WeatherDisplay:10.37 W/m2 CLR
02:47 14.3 °F 10.1 °F 30.27 in Calm     83% 0.00 in WeatherDisplay:10.37 W/m2 CLR
02:52 14.2 °F 9.7 °F 30.27 in Calm     82% 0.00 in WeatherDisplay:10.37 W/m2 CLR
02:57 14.0 °F 9.5 °F 30.27 in Calm     82% 0.00 in WeatherDisplay:10.37 W/m2 CLR
03:02 13.8 °F 9.3 °F 30.27 in Calm     82% 0.00 in WeatherDisplay:10.37 W/m2 CLR
03:07 13.7 °F 9.2 °F 30.27 in Calm     82% 0.00 in WeatherDisplay:10.37 W/m2 CLR
03:12 13.6 °F 9.4 °F 30.27 in Calm     83% 0.00 in WeatherDisplay:10.37 W/m2 CLR
03:17 13.6 °F 9.4 °F 30.27 in Calm     83% 0.00 in WeatherDisplay:10.37 W/m2 CLR
03:22 13.4 °F 9.2 °F 30.27 in Calm     83% 0.00 in WeatherDisplay:10.37 W/m2 CLR
03:27 13.2 °F 8.7 °F 30.27 in Calm     82% 0.00 in WeatherDisplay:10.37 W/m2 CLR
03:32 13.2 °F 9.3 °F 30.27 in Calm     84% 0.00 in WeatherDisplay:10.37 W/m2 CLR
03:37 13.5 °F 9.8 °F 30.27 in Calm     85% 0.00 in WeatherDisplay:10.37 W/m2 CLR
03:42 13.6 °F 9.9 °F 30.27 in Calm     85% 0.00 in WeatherDisplay:10.37 W/m2 CLR
03:47 13.7 °F 9.8 °F 30.26 in WNW 2.3 mph 2.3 mph 84% 0.00 in WeatherDisplay:10.37 W/m2 CLR
03:52 13.7 °F 9.8 °F 30.26 in Calm     84% 0.00 in WeatherDisplay:10.37 W/m2 CLR
03:57 13.6 °F 9.7 °F 30.25 in Calm     84% 0.00 in WeatherDisplay:10.37 W/m2 CLR
04:02 13.5 °F 9.3 °F 30.26 in Calm     83% 0.00 in WeatherDisplay:10.37 W/m2 CLR
04:07 13.3 °F 9.1 °F 30.25 in Calm     83% 0.00 in WeatherDisplay:10.37 W/m2 CLR
04:13 13.0 °F 8.5 °F 30.25 in Calm     82% 0.00 in WeatherDisplay:10.37 W/m2 CLR
04:17 12.8 °F 8.6 °F 30.25 in Calm     83% 0.00 in WeatherDisplay:10.37 W/m2 CLR
04:23 12.7 °F 8.5 °F 30.25 in Calm     83% 0.00 in WeatherDisplay:10.37 W/m2 CLR
04:28 12.5 °F 8.3 °F 30.26 in Calm     83% 0.00 in WeatherDisplay:10.37 W/m2 CLR
04:33 12.4 °F 8.2 °F 30.29 in Calm     83% 0.00 in WeatherDisplay:10.37 W/m2 CLR
04:38 12.5 °F 8.6 °F 30.28 in Calm     84% 0.00 in WeatherDisplay:10.37 W/m2 CLR
04:43 12.5 °F 8.6 °F 30.27 in Calm     84% 0.00 in WeatherDisplay:10.37 W/m2 CLR
04:48 12.6 °F 8.7 °F 30.27 in Calm     84% 0.00 in WeatherDisplay:10.37 W/m2 CLR
04:53 12.6 °F 8.7 °F 30.27 in Calm     84% 0.00 in WeatherDisplay:10.37 W/m2 CLR
04:58 12.6 °F 8.7 °F 30.27 in Calm     84% 0.00 in WeatherDisplay:10.37 W/m2 CLR
05:03 12.6 °F 8.7 °F 30.27 in Calm     84% 0.00 in WeatherDisplay:10.37 W/m2 CLR
05:08 12.8 °F 9.1 °F 30.27 in Calm     85% 0.00 in WeatherDisplay:10.37 W/m2 CLR
05:13 12.8 °F 8.9 °F 30.26 in SSW 1.2 mph 1.2 mph 84% 0.00 in WeatherDisplay:10.37 W/m2 CLR
05:18 12.6 °F 8.4 °F 30.27 in Calm     83% 0.00 in WeatherDisplay:10.37 W/m2 CLR
05:23 12.6 °F 8.7 °F 30.26 in Calm     84% 0.00 in WeatherDisplay:10.37 W/m2 CLR
05:28 12.7 °F 9.0 °F 30.26 in SSW 2.3 mph 2.3 mph 85% 0.00 in WeatherDisplay:10.37 W/m2 CLR
05:33 12.8 °F 8.9 °F 30.27 in NW 1.2 mph 1.2 mph 84% 0.00 in WeatherDisplay:10.37 W/m2 CLR
05:38 12.8 °F 8.9 °F 30.27 in Calm     84% 0.00 in WeatherDisplay:10.37 W/m2 CLR
05:43 12.7 °F 8.8 °F 30.27 in NW 1.2 mph 1.2 mph 84% 0.00 in WeatherDisplay:10.37 W/m2 CLR
05:48 12.7 °F 8.8 °F 30.28 in Calm     84% 0.00 in WeatherDisplay:10.37 W/m2 CLR
05:53 12.6 °F 8.4 °F 30.27 in Calm     83% 0.00 in WeatherDisplay:10.37 W/m2 CLR
05:58 12.4 °F 8.2 °F 30.28 in Calm     83% 0.00 in WeatherDisplay:10.37 W/m2 CLR
06:03 12.3 °F 8.4 °F 30.29 in Calm     84% 0.00 in WeatherDisplay:10.37 W/m2 CLR
06:08 12.3 °F 8.4 °F 30.30 in WSW 1.2 mph 1.2 mph 84% 0.00 in WeatherDisplay:10.37 W/m2 CLR
06:13 12.3 °F 8.4 °F 30.29 in WSW 2.3 mph 2.3 mph 84% 0.00 in WeatherDisplay:10.37 W/m2 CLR
06:18 12.2 °F 10.3 °F 30.29 in Calm     92% 0.00 in WeatherDisplay:10.37 W/m2 CLR
06:23 12.1 °F 7.9 °F 30.29 in Calm     83% 0.00 in WeatherDisplay:10.37 W/m2 CLR
06:28 12.0 °F 8.1 °F 30.29 in WSW 2.3 mph 2.3 mph 84% 0.00 in WeatherDisplay:10.37 W/m2 CLR
06:33 11.9 °F 7.7 °F 30.29 in SSW 1.2 mph   83% 0.00 in WeatherDisplay:10.37 W/m2 CLR
06:38 11.8 °F 7.6 °F 30.29 in Calm     83% 0.00 in WeatherDisplay:10.37 W/m2 CLR
06:43 11.8 °F 7.9 °F 30.29 in Calm     84% 0.00 in WeatherDisplay:10.37 W/m2 CLR
06:48 11.9 °F 8.0 °F 30.29 in SSW 1.2 mph   84% 0.00 in WeatherDisplay:10.37 W/m2 CLR
06:53 12.1 °F 8.5 °F 30.29 in Calm     85% 0.00 in WeatherDisplay:10.37 W/m2 CLR
06:58 12.0 °F 8.1 °F 30.30 in Calm     84% 0.00 in WeatherDisplay:10.37 W/m2 CLR
07:03 12.0 °F 8.1 °F 30.30 in Calm     84% 0.00 in WeatherDisplay:10.37 W/m2 CLR
07:08 12.1 °F 8.5 °F 30.30 in SSW 1.2 mph   85% 0.00 in WeatherDisplay:10.37 W/m2 CLR
07:13 12.4 °F 8.7 °F 30.30 in Calm     85% 0.00 in WeatherDisplay:10.37 W/m2 CLR
07:18 12.8 °F 9.1 °F 30.30 in Calm     85% 0.00 in WeatherDisplay:10.37 W/m2 CLR
07:23 13.1 °F 9.4 °F 30.30 in SSW 1.0 mph   85% 0.00 in WeatherDisplay:10.37 W/m2 CLR
07:28 13.2 °F 9.0 °F 30.30 in SSW 1.2 mph   83% 0.00 in WeatherDisplay:10.37 W/m2 CLR
07:33 13.6 °F 9.7 °F 30.29 in SSW 1.2 mph 1.2 mph 84% 0.00 in WeatherDisplay:10.37 W/m2 CLR
07:38 14.3 °F 10.6 °F 30.29 in Calm     85% 0.00 in WeatherDisplay:10.37 W/m2 CLR
07:43 15.0 °F 11.3 °F 30.29 in Calm     85% 0.00 in WeatherDisplay:10.37 W/m2 CLR
07:48 15.7 °F 11.7 °F 30.28 in Calm     84% 0.00 in WeatherDisplay:10.37 W/m2 CLR
07:53 16.4 °F 12.1 °F 30.28 in SW 1.2 mph 1.2 mph 83% 0.00 in WeatherDisplay:10.37 W/m2 CLR
07:58 16.8 °F 12.3 °F 30.28 in SW 1.2 mph 1.2 mph 82% 0.00 in WeatherDisplay:10.37 W/m2 CLR
08:03 17.3 °F 12.7 °F 30.28 in SW 1.2 mph   82% 0.00 in WeatherDisplay:10.37 W/m2 CLR
08:08 17.6 °F 12.8 °F 30.27 in NNW 3.5 mph 3.5 mph 81% 0.00 in WeatherDisplay:10.37 W/m2 CLR
08:13 18.0 °F 13.2 °F 30.27 in Calm     81% 0.00 in WeatherDisplay:10.37 W/m2 CLR
08:18 18.9 °F 14.0 °F 30.27 in Calm     81% 0.00 in WeatherDisplay:10.37 W/m2 CLR
08:23 19.7 °F 14.2 °F 30.26 in Calm     79% 0.00 in WeatherDisplay:10.37 W/m2 CLR
08:28 20.7 °F 14.6 °F 30.26 in Calm     77% 0.00 in WeatherDisplay:10.37 W/m2 CLR
08:33 21.4 °F 15.3 °F 30.27 in Calm     77% 0.00 in WeatherDisplay:10.37 W/m2 CLR
08:38 21.9 °F 15.5 °F 30.26 in Calm     76% 0.00 in WeatherDisplay:10.37 W/m2 CLR
08:43 22.5 °F 16.4 °F 30.25 in SW 2.3 mph 2.3 mph 77% 0.00 in WeatherDisplay:10.37 W/m2 CLR
08:48 23.0 °F 16.3 °F 30.25 in SW 3.5 mph 3.5 mph 75% 0.00 in WeatherDisplay:10.37 W/m2 CLR
08:53 23.4 °F 16.3 °F 30.25 in Calm   0.5 mph 74% 0.00 in WeatherDisplay:10.37 W/m2 CLR
08:58 23.9 °F 16.5 °F 30.24 in SW 3.5 mph 3.5 mph 73% 0.00 in WeatherDisplay:10.37 W/m2 CLR
09:03 24.3 °F 16.6 °F 30.24 in SW 2.3 mph 2.3 mph 72% 0.00 in WeatherDisplay:10.37 W/m2 CLR
09:08 24.8 °F 16.7 °F 30.24 in SW 2.3 mph 2.3 mph 71% 0.00 in WeatherDisplay:10.37 W/m2 CLR
09:13 25.2 °F 17.4 °F 30.25 in SW 2.3 mph   72% 0.00 in WeatherDisplay:10.37 W/m2 CLR
09:18 25.8 °F 17.4 °F 30.23 in SW 3.5 mph   70% 0.00 in WeatherDisplay:10.37 W/m2 CLR
09:23 26.3 °F 17.5 °F 30.24 in NNW 3.5 mph 3.5 mph 69% 0.01 in WeatherDisplay:10.37 W/m2 RA
09:28 26.5 °F 18.0 °F 30.24 in NNW 2.3 mph 2.3 mph 70% 0.01 in WeatherDisplay:10.37 W/m2 RA
09:34 26.8 °F 18.0 °F 30.24 in NW 3.5 mph 3.5 mph 69% 0.01 in WeatherDisplay:10.37 W/m2
09:39 26.9 °F 18.4 °F 30.24 in WSW 3.5 mph 3.5 mph 70% 0.01 in WeatherDisplay:10.37 W/m2 CLR
09:44 26.9 °F 18.1 °F 30.23 in NW 3.5 mph 3.5 mph 69% 0.01 in WeatherDisplay:10.37 W/m2 CLR
09:49 27.0 °F 18.5 °F 30.23 in NW 3.5 mph 3.5 mph 70% 0.01 in WeatherDisplay:10.37 W/m2 CLR
09:54 27.2 °F 18.4 °F 30.23 in WNW 3.5 mph 3.5 mph 69% 0.01 in WeatherDisplay:10.37 W/m2 CLR
09:59 27.5 °F 18.7 °F 30.21 in NW 2.3 mph 2.3 mph 69% 0.01 in WeatherDisplay:10.37 W/m2 CLR
10:04 28.0 °F 19.1 °F 30.23 in NNW 3.5 mph 3.5 mph 69% 0.01 in WeatherDisplay:10.37 W/m2 CLR
10:09 28.1 °F 18.9 °F 30.23 in NNW 1.2 mph   68% 0.01 in WeatherDisplay:10.37 W/m2 CLR
10:14 28.5 °F 20.0 °F 30.21 in NNW 1.2 mph 1.2 mph 70% 0.01 in WeatherDisplay:10.37 W/m2 CLR
10:19 29.4 °F 20.8 °F 30.21 in Calm     70% 0.01 in WeatherDisplay:10.37 W/m2 CLR
10:24 30.3 °F 21.0 °F 30.22 in SSW 3.0 mph 3.0 mph 68% 0.00 in WeatherDisplay:10.37 W/m2 CLR
10:29 30.9 °F 20.9 °F 30.20 in SW 1.2 mph 1.2 mph 66% 0.00 in WeatherDisplay:10.37 W/m2 CLR
10:34 31.2 °F 20.4 °F 30.20 in NNW 2.3 mph 2.3 mph 64% 0.00 in WeatherDisplay:10.37 W/m2 CLR
10:39 31.0 °F 20.2 °F 30.20 in ENE 3.5 mph 3.5 mph 64% 0.00 in WeatherDisplay:10.37 W/m2 CLR
10:44 30.8 °F 20.4 °F 30.20 in NNW 3.5 mph 3.5 mph 65% 0.00 in WeatherDisplay:10.37 W/m2 CLR
10:49 30.9 °F 20.9 °F 30.20 in NNW 3.5 mph 3.5 mph 66% 0.00 in WeatherDisplay:10.37 W/m2 CLR
10:54 31.2 °F 21.2 °F 30.20 in NNW 2.0 mph 2.0 mph 66% 0.00 in WeatherDisplay:10.37 W/m2 CLR
10:59 31.7 °F 22.0 °F 30.20 in NNW 2.3 mph 2.3 mph 67% 0.00 in WeatherDisplay:10.37 W/m2 CLR
11:04 32.4 °F 22.3 °F 30.20 in NNW 2.3 mph 2.3 mph 66% 0.00 in WeatherDisplay:10.37 W/m2 CLR
11:09 33.1 °F 22.6 °F 30.19 in NNW 1.2 mph 1.2 mph 65% 0.00 in WeatherDisplay:10.37 W/m2 CLR
11:14 33.9 °F 23.4 °F 30.19 in NNW 3.5 mph 3.5 mph 65% 0.00 in WeatherDisplay:10.37 W/m2 CLR
11:19 34.4 °F 23.5 °F 30.18 in West 3.5 mph 3.5 mph 64% 0.00 in WeatherDisplay:10.37 W/m2 CLR
11:24 35.2 °F 25.0 °F 30.18 in West 2.3 mph 2.3 mph 66% 0.00 in WeatherDisplay:10.37 W/m2 CLR
11:29 35.5 °F 23.8 °F 30.17 in SSE 4.0 mph 4.0 mph 62% 0.00 in WeatherDisplay:10.37 W/m2 CLR
11:34 36.1 °F 24.7 °F 30.16 in SSE 3.5 mph 3.5 mph 63% 0.00 in WeatherDisplay:10.37 W/m2 CLR
11:39 37.0 °F 25.6 °F 30.17 in SSE 1.2 mph 1.2 mph 63% 0.00 in WeatherDisplay:10.37 W/m2 CLR
11:44 37.9 °F 25.6 °F 30.15 in SSE 2.3 mph 2.3 mph 61% 0.00 in WeatherDisplay:10.37 W/m2 CLR
11:49 38.8 °F 27.3 °F 30.15 in SSE 2.3 mph 2.3 mph 63% 0.00 in WeatherDisplay:10.37 W/m2 CLR
11:54 40.0 °F 27.2 °F 30.14 in WNW 5.0 mph 5.0 mph 60% 0.00 in WeatherDisplay:10.37 W/m2 CLR
11:59 40.2 °F 26.6 °F 30.13 in West 3.5 mph 3.5 mph 58% 0.00 in WeatherDisplay:10.37 W/m2 CLR
12:04 40.4 °F 26.4 °F 30.13 in West 4.6 mph 4.6 mph 57% 0.00 in WeatherDisplay:10.37 W/m2 CLR
12:09 41.1 °F 28.7 °F 30.13 in West 1.2 mph   61% 0.00 in WeatherDisplay:10.37 W/m2 CLR
12:14 41.8 °F 27.7 °F 30.12 in West 2.3 mph 2.3 mph 57% 0.00 in WeatherDisplay:10.37 W/m2 CLR
12:19 42.3 °F 27.7 °F 30.12 in West 2.3 mph 2.3 mph 56% 0.00 in WeatherDisplay:10.37 W/m2 CLR
12:24 42.5 °F 27.9 °F 30.11 in East 4.6 mph 4.6 mph 56% 0.00 in WeatherDisplay:10.37 W/m2 CLR
12:29 42.3 °F 27.7 °F 30.11 in East 3.5 mph 3.5 mph 56% 0.00 in WeatherDisplay:10.37 W/m2 CLR
12:34 42.4 °F 28.7 °F 30.10 in ESE 3.5 mph 3.5 mph 58% 0.00 in WeatherDisplay:10.37 W/m2 CLR
12:39 42.9 °F 29.1 °F 30.10 in ESE 3.5 mph 3.5 mph 58% 0.00 in WeatherDisplay:10.37 W/m2 CLR
12:44 43.6 °F 29.4 °F 30.09 in South 2.3 mph   57% 0.00 in WeatherDisplay:10.37 W/m2 CLR
12:49 44.4 °F 29.7 °F 30.09 in South 3.5 mph 3.5 mph 56% 0.00 in WeatherDisplay:10.37 W/m2 CLR
12:54 45.2 °F 30.4 °F 30.08 in SE 3.5 mph 3.5 mph 56% 0.00 in WeatherDisplay:10.37 W/m2 CLR
12:59 46.2 °F 30.5 °F 30.07 in South 4.6 mph 4.6 mph 54% 0.00 in WeatherDisplay:10.37 W/m2 CLR
13:04 47.1 °F 30.8 °F 30.09 in South 3.5 mph 3.5 mph 53% 0.00 in WeatherDisplay:10.37 W/m2 CLR
13:09 48.1 °F 32.2 °F 30.08 in South 4.6 mph 4.6 mph 54% 0.00 in WeatherDisplay:10.37 W/m2 CLR
13:14 48.9 °F 32.0 °F 30.07 in SSE 4.6 mph 4.6 mph 52% 0.00 in WeatherDisplay:10.37 W/m2 CLR
13:19 49.4 °F 32.5 °F 30.07 in SSE 2.3 mph 2.3 mph 52% 0.00 in WeatherDisplay:10.37 W/m2 CLR
13:24 50.5 °F 33.0 °F 30.06 in SW 2.3 mph 2.3 mph 51% 0.00 in WeatherDisplay:10.37 W/m2 CLR
13:29 51.8 °F 32.7 °F 30.05 in SSW 7.0 mph 7.0 mph 48% 0.00 in WeatherDisplay:10.37 W/m2 CLR
13:34 52.9 °F 33.7 °F 30.04 in SW 3.5 mph 3.5 mph 48% 0.00 in WeatherDisplay:10.37 W/m2 CLR
13:39 54.0 °F 33.1 °F 30.03 in SSW 3.5 mph 3.5 mph 45% 0.00 in WeatherDisplay:10.37 W/m2 CLR
13:44 54.9 °F 31.6 °F 30.02 in SSW 2.0 mph 2.0 mph 41% 0.00 in WeatherDisplay:10.37 W/m2 CLR
13:49 56.1 °F 32.1 °F 30.02 in West 5.0 mph 5.0 mph 40% 0.00 in WeatherDisplay:10.37 W/m2 CLR
13:54 57.1 °F 31.0 °F 30.02 in SW 4.0 mph 4.0 mph 37% 0.00 in WeatherDisplay:10.37 W/m2 CLR
13:59 57.9 °F 32.4 °F 30.01 in SW 3.5 mph 3.5 mph 38% 0.00 in WeatherDisplay:10.37 W/m2 CLR
14:04 58.3 °F 30.7 °F 30.00 in West 10.4 mph 10.4 mph 35% 0.00 in WeatherDisplay:10.37 W/m2 CLR
14:09 58.2 °F 29.9 °F 30.00 in SW 11.5 mph 11.5 mph 34% 0.00 in WeatherDisplay:10.37 W/m2 CLR
14:14 58.0 °F 30.5 °F 30.00 in NW 5.8 mph 5.8 mph 35% 0.00 in WeatherDisplay:10.37 W/m2 CLR
14:19 58.1 °F 30.6 °F 30.01 in SSW 4.6 mph 4.6 mph 35% 0.00 in WeatherDisplay:10.37 W/m2 CLR
14:24 58.3 °F 30.0 °F 30.01 in West 9.0 mph 9.0 mph 34% 0.00 in WeatherDisplay:10.37 W/m2 CLR
14:29 58.2 °F 30.7 °F 30.01 in SSE 4.6 mph 4.6 mph 35% 0.00 in WeatherDisplay:10.37 W/m2 CLR
14:34 58.4 °F 30.1 °F 30.01 in WNW 4.0 mph 4.5 mph 34% 0.00 in WeatherDisplay:10.37 W/m2 CLR
14:39 58.4 °F 30.8 °F 30.01 in West 4.6 mph 4.6 mph 35% 0.00 in WeatherDisplay:10.37 W/m2 CLR
14:44 58.9 °F 30.6 °F 30.01 in West 4.6 mph 4.6 mph 34% 0.00 in WeatherDisplay:10.37 W/m2 CLR
14:49 59.0 °F 29.9 °F 30.01 in West 4.6 mph 4.6 mph 33% 0.00 in WeatherDisplay:10.37 W/m2 CLR
14:54 59.0 °F 30.6 °F 30.01 in SW 6.9 mph 6.9 mph 34% 0.00 in WeatherDisplay:10.37 W/m2 CLR
14:59 59.1 °F 30.7 °F 30.01 in West 5.8 mph 5.8 mph 34% 0.00 in WeatherDisplay:10.37 W/m2 CLR
15:04 59.2 °F 30.1 °F 30.01 in WSW 3.5 mph 3.5 mph 33% 0.00 in WeatherDisplay:10.37 W/m2 CLR
15:10 59.0 °F 30.6 °F 30.01 in SW 2.3 mph 2.3 mph 34% 0.00 in WeatherDisplay:10.37 W/m2 CLR
15:15 59.0 °F 30.6 °F 30.01 in West 3.5 mph 3.5 mph 34% 0.00 in WeatherDisplay:10.37 W/m2 CLR
15:20 59.0 °F 29.9 °F 30.01 in SW 4.6 mph 4.6 mph 33% 0.00 in WeatherDisplay:10.37 W/m2 CLR
15:25 59.0 °F 29.2 °F 30.01 in WNW 4.6 mph 4.6 mph 32% 0.00 in WeatherDisplay:10.37 W/m2 CLR
15:30 58.5 °F 29.5 °F 30.01 in WSW 5.8 mph 5.8 mph 33% 0.00 in WeatherDisplay:10.37 W/m2 CLR
15:35 57.7 °F 28.0 °F 30.01 in WNW 9.2 mph 9.2 mph 32% 0.00 in WeatherDisplay:10.37 W/m2 CLR
15:40 57.1 °F 28.2 °F 30.03 in SW 10.4 mph 10.4 mph 33% 0.00 in WeatherDisplay:10.37 W/m2 CLR
15:45 56.6 °F 27.8 °F 30.03 in West 6.9 mph 6.9 mph 33% 0.00 in WeatherDisplay:10.37 W/m2 CLR
15:50 56.2 °F 28.9 °F 30.03 in WNW 5.0 mph 5.0 mph 35% 0.00 in WeatherDisplay:10.37 W/m2 CLR
15:55 56.0 °F 28.7 °F 30.03 in West 3.5 mph 3.5 mph 35% 0.00 in WeatherDisplay:10.37 W/m2 CLR
16:00 55.8 °F 28.5 °F 30.03 in WNW 3.5 mph 3.5 mph 35% 0.00 in WeatherDisplay:10.37 W/m2 CLR
16:05 55.5 °F 29.0 °F 30.05 in WNW 3.5 mph 3.5 mph 36% 0.00 in WeatherDisplay:10.37 W/m2 CLR
16:10 55.3 °F 27.4 °F 30.05 in SW 5.8 mph 5.8 mph 34% 0.00 in WeatherDisplay:10.37 W/m2 CLR
16:15 55.2 °F 26.6 °F 30.06 in West 10.4 mph 10.4 mph 33% 0.00 in WeatherDisplay:10.37 W/m2 CLR
16:20 55.0 °F 27.1 °F 30.06 in West 6.9 mph 6.9 mph 34% 0.00 in WeatherDisplay:10.37 W/m2 CLR
16:25 54.6 °F 27.5 °F 30.06 in WSW 5.0 mph 5.0 mph 35% 0.00 in WeatherDisplay:10.37 W/m2 CLR
16:30 54.2 °F 27.1 °F 30.07 in West 2.3 mph 2.3 mph 35% 0.00 in WeatherDisplay:10.37 W/m2 CLR
16:35 53.9 °F 26.8 °F 30.07 in West 5.8 mph 5.8 mph 35% 0.00 in WeatherDisplay:10.37 W/m2 CLR
16:40 53.5 °F 27.2 °F 30.07 in WSW 6.9 mph 6.9 mph 36% 0.00 in WeatherDisplay:10.37 W/m2 CLR
16:45 53.1 °F 26.8 °F 30.07 in West 2.3 mph 2.3 mph 36% 0.00 in WeatherDisplay:10.37 W/m2 CLR
16:50 52.8 °F 25.9 °F 30.07 in SW 4.6 mph 4.6 mph 35% 0.00 in WeatherDisplay:10.37 W/m2 CLR
16:55 52.5 °F 26.3 °F 30.07 in West 2.3 mph 2.3 mph 36% 0.00 in WeatherDisplay:10.37 W/m2 CLR
17:00 52.1 °F 26.6 °F 30.08 in West 1.2 mph   37% 0.00 in WeatherDisplay:10.37 W/m2 CLR
17:05 51.6 °F 26.8 °F 30.08 in West 2.0 mph 2.0 mph 38% 0.00 in WeatherDisplay:10.37 W/m2 CLR
17:10 51.1 °F 27.6 °F 30.09 in Calm     40% 0.00 in WeatherDisplay:10.37 W/m2 CLR
17:15 50.4 °F 27.0 °F 30.10 in Calm     40% 0.00 in WeatherDisplay:10.37 W/m2 CLR
17:20 49.7 °F 26.9 °F 30.10 in West 1.2 mph 1.2 mph 41% 0.00 in WeatherDisplay:10.37 W/m2 CLR
17:25 49.0 °F 26.3 °F 30.11 in WSW 2.3 mph 2.3 mph 41% 0.00 in WeatherDisplay:10.37 W/m2 CLR
17:30 48.6 °F 25.9 °F 30.11 in SW 2.3 mph 2.3 mph 41% 0.00 in WeatherDisplay:10.37 W/m2 CLR
17:35 48.3 °F 26.2 °F 30.11 in SSW 2.3 mph 2.3 mph 42% 0.00 in WeatherDisplay:10.37 W/m2 CLR
17:40 47.8 °F 26.4 °F 30.11 in WSW 5.8 mph 5.8 mph 43% 0.00 in WeatherDisplay:10.37 W/m2 CLR
17:45 47.4 °F 24.9 °F 30.12 in SW 5.8 mph 5.8 mph 41% 0.00 in WeatherDisplay:10.37 W/m2 CLR
17:50 47.7 °F 26.3 °F 30.12 in WSW 1.2 mph 1.2 mph 43% 0.00 in WeatherDisplay:10.37 W/m2 CLR
17:55 47.1 °F 25.7 °F 30.13 in West 3.5 mph 3.5 mph 43% 0.00 in WeatherDisplay:10.37 W/m2 CLR
18:00 46.7 °F 25.9 °F 30.13 in WSW 3.5 mph 3.5 mph 44% 0.00 in WeatherDisplay:10.37 W/m2 CLR
18:05 46.1 °F 26.4 °F 30.13 in SSW 4.6 mph 4.6 mph 46% 0.00 in WeatherDisplay:10.37 W/m2 CLR
18:10 45.6 °F 24.9 °F 30.14 in SW 5.0 mph 5.0 mph 44% 0.00 in WeatherDisplay:10.37 W/m2 CLR
18:15 45.9 °F 25.7 °F 30.14 in West 3.5 mph 3.5 mph 45% 0.00 in WeatherDisplay:10.37 W/m2 CLR
18:20 46.0 °F 24.7 °F 30.14 in SW 5.8 mph 5.8 mph 43% 0.00 in WeatherDisplay:10.37 W/m2 CLR
18:25 46.1 °F 24.8 °F 30.14 in WNW 3.5 mph 3.5 mph 43% 0.00 in WeatherDisplay:10.37 W/m2 CLR
18:30 46.1 °F 24.8 °F 30.14 in West 2.3 mph 2.3 mph 43% 0.00 in WeatherDisplay:10.37 W/m2 CLR
18:35 46.0 °F 24.7 °F 30.14 in WSW 2.3 mph 2.3 mph 43% 0.00 in WeatherDisplay:10.37 W/m2 CLR
18:40 45.9 °F 24.1 °F 30.14 in WSW 1.2 mph 1.2 mph 42% 0.00 in WeatherDisplay:10.37 W/m2 CLR
18:45 45.8 °F 24.0 °F 30.15 in WSW 3.5 mph 3.5 mph 42% 0.00 in WeatherDisplay:10.37 W/m2 CLR
18:50 45.7 °F 23.9 °F 30.14 in Calm   0.2 mph 42% 0.00 in WeatherDisplay:10.37 W/m2 CLR
18:55 45.7 °F 23.9 °F 30.15 in West 3.5 mph   42% 0.00 in WeatherDisplay:10.37 W/m2 CLR
19:00 45.8 °F 24.0 °F 30.15 in SW 3.5 mph   42% 0.00 in WeatherDisplay:10.37 W/m2 CLR
19:05 45.8 °F 23.4 °F 30.12 in SW 1.2 mph 1.2 mph 41% 0.00 in WeatherDisplay:10.37 W/m2 CLR
19:10 45.6 °F 23.8 °F 30.12 in SW 1.2 mph   42% 0.00 in WeatherDisplay:10.37 W/m2 CLR
19:15 45.0 °F 24.4 °F 30.12 in SW 3.5 mph 3.5 mph 44% 0.00 in WeatherDisplay:10.37 W/m2 CLR
19:21 44.2 °F 25.2 °F 30.13 in SW 1.2 mph 1.2 mph 47% 0.00 in WeatherDisplay:10.37 W/m2 CLR
19:26 43.4 °F 24.5 °F 30.14 in Calm     47% 0.00 in WeatherDisplay:10.37 W/m2 CLR
19:31 43.0 °F 24.1 °F 30.14 in Calm     47% 0.00 in WeatherDisplay:10.37 W/m2 CLR
19:36 42.6 °F 23.2 °F 30.14 in Calm     46% 0.00 in WeatherDisplay:10.37 W/m2 CLR
19:41 42.7 °F 24.4 °F 30.13 in SW 3.5 mph 3.5 mph 48% 0.00 in WeatherDisplay:10.37 W/m2 CLR
19:46 42.5 °F 24.2 °F 30.14 in SW 1.2 mph   48% 0.00 in WeatherDisplay:10.37 W/m2 CLR
19:51 42.3 °F 25.0 °F 30.14 in SW 3.5 mph 3.5 mph 50% 0.00 in WeatherDisplay:10.37 W/m2 CLR
19:56 41.4 °F 25.1 °F 30.14 in SW 5.8 mph 5.8 mph 52% 0.00 in WeatherDisplay:10.37 W/m2 CLR
20:01 41.6 °F 24.8 °F 30.14 in SW 4.6 mph 4.6 mph 51% 0.00 in WeatherDisplay:10.37 W/m2 CLR
20:06 41.8 °F 24.5 °F 30.09 in SW 2.3 mph 2.3 mph 50% 0.00 in WeatherDisplay:10.37 W/m2 CLR
20:11 41.7 °F 24.4 °F 30.09 in Calm     50% 0.00 in WeatherDisplay:10.37 W/m2 CLR
20:16 41.4 °F 24.6 °F 30.10 in Calm   0.1 mph 51% 0.00 in WeatherDisplay:10.37 W/m2 CLR
20:21 41.1 °F 24.3 °F 30.10 in SW 2.3 mph 2.3 mph 51% 0.00 in WeatherDisplay:10.37 W/m2 CLR
20:26 40.9 °F 24.6 °F 30.10 in Calm     52% 0.00 in WeatherDisplay:10.37 W/m2 CLR
20:31 40.7 °F 24.0 °F 30.10 in SW 3.5 mph 3.5 mph 51% 0.00 in WeatherDisplay:10.37 W/m2 CLR
20:36 40.9 °F 24.6 °F 30.10 in SW 1.2 mph   52% 0.00 in WeatherDisplay:10.37 W/m2 CLR
20:41 40.7 °F 24.9 °F 30.10 in SW 1.2 mph   53% 0.00 in WeatherDisplay:10.37 W/m2 CLR
20:46 40.7 °F 24.0 °F 30.10 in SW 3.5 mph 3.5 mph 51% 0.00 in WeatherDisplay:10.37 W/m2 CLR
20:51 40.9 °F 24.6 °F 30.10 in Calm     52% 0.00 in WeatherDisplay:10.37 W/m2 CLR
20:56 40.4 °F 24.6 °F 30.10 in SW 4.6 mph 4.6 mph 53% 0.00 in WeatherDisplay:10.37 W/m2 CLR
21:01 40.0 °F 24.7 °F 30.10 in Calm     54% 0.00 in WeatherDisplay:10.37 W/m2 CLR
21:06 39.2 °F 24.8 °F 30.09 in SW 3.5 mph 3.5 mph 56% 0.00 in WeatherDisplay:10.37 W/m2 CLR
21:07 38.8 °F 24.4 °F 30.09 in SW 3.5 mph 3.5 mph 56% 0.00 in WeatherDisplay:10.37 W/m2 CLR
21:12 38.4 °F 24.9 °F 30.09 in SW 4.6 mph 4.6 mph 58% 0.00 in WeatherDisplay:10.37 W/m2 CLR
21:17 38.6 °F 24.7 °F 30.09 in SW 2.3 mph 2.3 mph 57% 0.00 in WeatherDisplay:10.37 W/m2 CLR
21:22 38.4 °F 24.5 °F 30.09 in Calm     57% 0.00 in WeatherDisplay:10.37 W/m2 CLR
21:27 37.9 °F 24.4 °F 30.08 in SW 2.3 mph 2.3 mph 58% 0.00 in WeatherDisplay:10.37 W/m2 CLR
21:32 37.3 °F 24.3 °F 30.10 in SW 2.3 mph   59% 0.00 in WeatherDisplay:10.37 W/m2 CLR
21:37 37.0 °F 24.0 °F 30.10 in SW 3.0 mph 3.0 mph 59% 0.00 in WeatherDisplay:10.37 W/m2 CLR
21:42 37.1 °F 24.1 °F 30.10 in Calm     59% 0.00 in WeatherDisplay:10.37 W/m2 CLR
21:47 37.4 °F 24.4 °F 30.10 in SW 2.3 mph 2.3 mph 59% 0.00 in WeatherDisplay:10.37 W/m2 CLR
21:52 37.5 °F 24.1 °F 30.08 in Calm     58% 0.00 in WeatherDisplay:10.37 W/m2 CLR
21:57 37.3 °F 23.9 °F 30.10 in Calm     58% 0.00 in WeatherDisplay:10.37 W/m2 CLR
22:02 36.9 °F 23.9 °F 30.07 in Calm     59% 0.00 in WeatherDisplay:10.37 W/m2 CLR
22:07 36.4 °F 23.8 °F 30.07 in Calm     60% 0.00 in WeatherDisplay:10.37 W/m2 CLR
22:12 35.9 °F 23.7 °F 30.07 in Calm     61% 0.00 in WeatherDisplay:10.37 W/m2 CLR
22:17 35.4 °F 23.7 °F 30.07 in Calm     62% 0.00 in WeatherDisplay:10.37 W/m2 CLR
22:23 34.9 °F 23.9 °F 30.08 in SW 1.2 mph   64% 0.00 in WeatherDisplay:10.37 W/m2 CLR
22:28 34.4 °F 23.5 °F 30.08 in Calm     64% 0.00 in WeatherDisplay:10.37 W/m2 CLR
22:33 34.3 °F 24.1 °F 30.07 in Calm     66% 0.00 in WeatherDisplay:10.37 W/m2 CLR
22:38 33.9 °F 23.7 °F 30.07 in Calm     66% 0.00 in WeatherDisplay:10.37 W/m2 CLR
22:43 33.5 °F 24.1 °F 30.07 in SW 2.3 mph 2.3 mph 68% 0.00 in WeatherDisplay:10.37 W/m2 CLR
22:48 34.4 °F 24.6 °F 30.07 in SW 2.3 mph 2.3 mph 67% 0.00 in WeatherDisplay:10.37 W/m2 CLR
22:53 35.0 °F 24.8 °F 30.06 in SW 2.3 mph 2.3 mph 66% 0.00 in WeatherDisplay:10.37 W/m2 CLR
22:58 35.5 °F 24.5 °F 30.05 in Calm     64% 0.00 in WeatherDisplay:10.37 W/m2 CLR
23:03 35.3 °F 24.0 °F 30.01 in SW 1.2 mph 1.2 mph 63% 0.00 in WeatherDisplay:10.37 W/m2 CLR
23:08 34.8 °F 23.9 °F 30.01 in Calm     64% 0.00 in WeatherDisplay:10.37 W/m2 CLR
23:13 34.4 °F 23.8 °F 30.01 in Calm     65% 0.00 in WeatherDisplay:10.37 W/m2 CLR
23:18 34.3 °F 24.5 °F 30.01 in Calm     67% 0.00 in WeatherDisplay:10.37 W/m2 CLR
23:23 34.2 °F 24.0 °F 30.01 in Calm     66% 0.00 in WeatherDisplay:10.37 W/m2 CLR
23:28 33.8 °F 23.6 °F 30.01 in SW 1.2 mph   66% 0.00 in WeatherDisplay:10.37 W/m2 CLR
23:33 33.7 °F 23.5 °F 30.01 in Calm     66% 0.00 in WeatherDisplay:10.37 W/m2 CLR
23:38 34.2 °F 23.7 °F 30.00 in Calm     65% 0.00 in WeatherDisplay:10.37 W/m2 CLR
23:43 34.3 °F 24.1 °F 30.00 in SW 4.6 mph 4.6 mph 66% 0.00 in WeatherDisplay:10.37 W/m2 CLR
23:48 34.4 °F 24.2 °F 30.01 in SW 3.5 mph 3.5 mph 66% 0.00 in WeatherDisplay:10.37 W/m2 CLR
23:53 35.5 °F 24.1 °F 30.01 in SW 2.3 mph 2.3 mph 63% 0.00 in WeatherDisplay:10.37 W/m2 CLR
23:58 36.1 °F 24.3 °F 30.00 in SW 2.3 mph 2.3 mph 62% 0.00 in WeatherDisplay:10.37 W/m2 CLR
Windsor Co Weather
Compliments of Weather Underground - 3 mb